createdAt,value
2018-12-24T00:08:25.093Z,2.10
2018-12-24T00:12:32.498Z,2.30
2018-12-24T00:16:39.928Z,1.90
2018-12-24T00:20:47.472Z,1.93
2018-12-24T00:38:15.426Z,2.90
2018-12-24T00:42:22.462Z,2.20
2018-12-24T00:46:29.711Z,1.97
2018-12-24T00:50:37.038Z,1.93
2018-12-24T00:54:44.477Z,1.77
2018-12-24T00:58:51.816Z,1.80
2018-12-24T01:03:00.181Z,1.50
2018-12-24T01:11:27.844Z,1.30
2018-12-24T01:15:34.915Z,1.50
2018-12-24T01:19:44.478Z,1.73
2018-12-24T01:23:52.120Z,1.17
2018-12-24T01:28:00.491Z,1.13
2018-12-24T01:32:07.686Z,1.00
2018-12-24T01:36:15.393Z,1.00
2018-12-24T01:40:22.678Z,0.90
2018-12-24T01:44:30.025Z,1.20
2018-12-24T01:48:37.382Z,1.03
2018-12-24T01:52:45.440Z,1.17
2018-12-24T01:56:52.565Z,1.17
2018-12-24T02:01:00.172Z,1.00
2018-12-24T02:05:07.866Z,0.80
2018-12-24T02:13:41.074Z,0.80
2018-12-24T02:17:48.118Z,0.70
2018-12-24T02:21:55.211Z,0.87
2018-12-24T02:26:02.331Z,0.87
2018-12-24T02:30:09.608Z,0.90
2018-12-24T02:34:19.903Z,0.80
2018-12-24T02:38:27.241Z,0.90
2018-12-24T02:42:34.289Z,0.90
2018-12-24T02:46:41.401Z,0.80
2018-12-24T02:50:48.259Z,0.87
2018-12-24T02:54:55.331Z,0.73
2018-12-24T02:59:22.435Z,0.63
2018-12-24T03:03:50.302Z,0.90
2018-12-24T03:07:57.844Z,0.80
2018-12-24T03:12:30.092Z,0.70
2018-12-24T03:29:51.903Z,0.67
2018-12-24T03:33:59.143Z,0.50
2018-12-24T03:38:06.484Z,0.90
2018-12-24T03:42:13.869Z,0.80
2018-12-24T03:46:20.951Z,0.80
2018-12-24T03:50:30.297Z,0.90
2018-12-24T03:54:58.363Z,1.00
2018-12-24T04:03:25.105Z,1.00
2018-12-24T04:07:32.663Z,0.70
2018-12-24T04:11:40.102Z,0.90
2018-12-24T04:15:47.441Z,1.00
2018-12-24T04:19:54.509Z,0.80
2018-12-24T04:24:01.449Z,0.70
2018-12-24T04:32:40.623Z,0.87
2018-12-24T04:36:47.674Z,0.90
2018-12-24T04:45:12.955Z,0.90
2018-12-24T04:49:20.137Z,1.03
2018-12-24T04:53:27.453Z,0.90
2018-12-24T04:57:34.944Z,0.90
2018-12-24T05:06:01.320Z,1.20
2018-12-24T05:10:08.359Z,1.30
2018-12-24T05:14:35.917Z,1.27
2018-12-24T05:18:43.049Z,1.20
2018-12-24T05:27:29.420Z,1.43
2018-12-24T05:31:36.886Z,1.40
2018-12-24T05:35:44.648Z,1.37
2018-12-24T05:39:52.118Z,1.40
2018-12-24T05:43:59.429Z,1.30
2018-12-24T05:48:06.889Z,1.40
2018-12-24T05:52:14.220Z,1.10
2018-12-24T05:56:21.519Z,1.60
2018-12-24T06:00:28.895Z,1.50
2018-12-24T06:04:36.013Z,1.63
2018-12-24T06:08:43.258Z,1.70
2018-12-24T06:17:19.448Z,1.40
2018-12-24T06:21:26.637Z,1.93
2018-12-24T06:25:34.167Z,1.40
2018-12-24T06:38:31.076Z,1.60
2018-12-24T06:42:38.340Z,1.67
2018-12-24T06:46:47.334Z,1.60
2018-12-24T06:50:54.389Z,1.87
2018-12-24T06:55:01.914Z,1.63
2018-12-24T06:59:10.596Z,1.77
2018-12-24T07:03:17.767Z,1.43
2018-12-24T07:07:25.638Z,1.53
2018-12-24T07:11:32.667Z,2.30
2018-12-24T07:15:39.914Z,1.77
2018-12-24T07:19:47.116Z,2.33
2018-12-24T07:23:54.564Z,3.60
2018-12-24T07:28:01.819Z,2.07
2018-12-24T07:32:09.297Z,1.70
2018-12-24T07:36:16.472Z,2.03
2018-12-24T07:40:23.907Z,2.10
2018-12-24T07:44:49.566Z,3.53
2018-12-24T07:48:56.640Z,2.53
2018-12-24T07:57:35.346Z,2.20
2018-12-24T08:01:42.628Z,2.00
2018-12-24T08:05:49.971Z,2.20
2018-12-24T08:09:57.874Z,2.13
2018-12-24T08:14:44.496Z,2.07
2018-12-24T08:18:51.689Z,1.80
2018-12-24T08:23:00.525Z,2.03
2018-12-24T08:27:07.748Z,2.00
2018-12-24T08:31:16.959Z,1.80
2018-12-24T08:35:30.167Z,2.37
2018-12-24T08:44:09.104Z,1.90
2018-12-24T08:48:16.822Z,1.90
2018-12-24T08:52:24.077Z,2.77
2018-12-24T08:56:32.937Z,2.30
2018-12-24T09:00:59.133Z,2.10
2018-12-24T09:05:06.456Z,2.20
2018-12-24T09:09:13.739Z,2.17
2018-12-24T09:17:43.552Z,2.37
2018-12-24T09:21:51.264Z,2.77
2018-12-24T09:25:58.432Z,2.73
2018-12-24T09:30:24.779Z,2.43
2018-12-24T09:34:46.221Z,2.27
2018-12-24T09:39:00.152Z,2.80
2018-12-24T09:43:46.955Z,2.33
2018-12-24T09:47:54.834Z,2.30
2018-12-24T09:52:02.198Z,2.30
2018-12-24T09:56:12.284Z,2.77
2018-12-24T10:00:23.969Z,2.17
2018-12-24T10:04:54.650Z,2.47
2018-12-24T10:09:07.646Z,2.70
2018-12-24T10:13:15.476Z,2.37
2018-12-24T10:17:41.891Z,2.63
2018-12-24T10:21:49.089Z,3.30
2018-12-24T10:25:56.251Z,2.70
2018-12-24T10:30:03.596Z,2.83
2018-12-24T10:34:11.053Z,2.50
2018-12-24T10:38:18.248Z,2.67
2018-12-24T10:42:25.449Z,2.60
2018-12-24T10:46:32.665Z,2.53
2018-12-24T10:50:39.924Z,3.03
2018-12-24T10:54:47.243Z,3.47
2018-12-24T11:03:14.410Z,2.67
2018-12-24T11:07:21.533Z,3.07
2018-12-24T11:11:30.612Z,3.33
2018-12-24T11:15:37.800Z,2.53
2018-12-24T11:19:45.233Z,2.90
2018-12-24T11:23:52.461Z,2.67
2018-12-24T11:27:59.461Z,3.07
2018-12-24T11:32:06.629Z,2.50
2018-12-24T11:36:13.771Z,3.50
2018-12-24T11:40:21.121Z,3.33
2018-12-24T11:44:28.025Z,3.33
2018-12-24T11:48:35.068Z,2.80
2018-12-24T11:52:42.051Z,2.80
2018-12-24T11:56:49.251Z,2.67
2018-12-24T12:05:19.214Z,3.00
2018-12-24T12:14:05.622Z,2.47
2018-12-24T12:18:14.519Z,2.50
2018-12-24T12:22:21.839Z,2.73
2018-12-24T12:26:30.346Z,2.43
2018-12-24T12:30:57.516Z,3.10
2018-12-24T12:39:37.322Z,2.37
2018-12-24T12:43:44.622Z,3.33
2018-12-24T12:47:52.314Z,2.77
2018-12-24T12:51:59.728Z,2.70
2018-12-24T12:56:09.127Z,2.70
2018-12-24T13:00:16.403Z,3.03
2018-12-24T13:04:24.015Z,3.63
2018-12-24T13:08:31.605Z,2.53
2018-12-24T13:12:38.741Z,2.77
2018-12-24T13:21:14.918Z,2.23
2018-12-24T13:25:22.075Z,2.67
2018-12-24T13:29:29.807Z,2.43
2018-12-24T13:38:17.305Z,1.90
2018-12-24T13:42:24.431Z,2.10
2018-12-24T13:46:31.693Z,2.53
2018-12-24T13:50:39.019Z,2.40
2018-12-24T13:54:46.249Z,1.93
2018-12-24T13:58:53.597Z,2.20
2018-12-24T14:03:19.799Z,1.80
2018-12-24T14:07:45.703Z,2.67
2018-12-24T14:11:52.600Z,2.73
2018-12-24T14:16:44.880Z,1.97
2018-12-24T14:20:51.773Z,2.27
2018-12-24T14:25:18.772Z,1.90
2018-12-24T14:29:26.658Z,2.37
2018-12-24T14:33:53.956Z,2.07
2018-12-24T14:38:01.144Z,3.23
2018-12-24T14:46:47.670Z,1.90
2018-12-24T14:50:54.556Z,2.17
2018-12-24T14:55:01.580Z,2.13
2018-12-24T14:59:08.651Z,2.10
2018-12-24T15:03:15.701Z,1.90
2018-12-24T15:07:22.635Z,2.00
2018-12-24T15:11:29.654Z,2.00
2018-12-24T15:15:36.697Z,2.00
2018-12-24T15:19:43.701Z,1.93
2018-12-24T15:23:50.748Z,2.13
2018-12-24T15:27:57.815Z,1.93
2018-12-24T15:32:23.936Z,1.97
2018-12-24T15:36:32.220Z,2.10
2018-12-24T15:40:58.734Z,2.30
2018-12-24T15:45:06.041Z,2.07
2018-12-24T15:49:13.220Z,1.83
2018-12-24T15:53:21.307Z,2.07
2018-12-24T15:57:28.195Z,2.07
2018-12-24T16:01:35.126Z,2.20
2018-12-24T16:05:42.138Z,2.33
2018-12-24T16:09:49.352Z,1.93
2018-12-24T16:18:22.111Z,2.20
2018-12-24T16:22:29.305Z,2.00
2018-12-24T16:26:36.306Z,1.87
2018-12-24T16:35:23.909Z,2.70
2018-12-24T16:39:30.843Z,2.53
2018-12-24T16:43:38.074Z,2.87
2018-12-24T16:47:45.250Z,3.47
2018-12-24T16:51:52.549Z,3.43
2018-12-24T16:55:59.580Z,2.87
2018-12-24T17:00:07.236Z,3.30
2018-12-24T17:04:33.255Z,3.57
2018-12-24T17:08:40.572Z,3.50
2018-12-24T17:12:49.567Z,3.30
2018-12-24T17:16:56.590Z,2.80
2018-12-24T17:21:05.209Z,3.40
2018-12-24T17:25:12.200Z,4.47
2018-12-24T17:29:19.225Z,4.27
2018-12-24T17:33:26.216Z,3.70
2018-12-24T17:37:33.262Z,3.80
2018-12-24T17:41:40.169Z,3.37
2018-12-24T17:45:47.108Z,3.53
2018-12-24T17:49:54.601Z,3.30
2018-12-24T17:54:06.024Z,3.17
2018-12-24T18:02:31.700Z,3.67
2018-12-24T18:06:38.984Z,4.23
2018-12-24T18:10:45.988Z,4.60
2018-12-24T18:19:25.365Z,5.80
2018-12-24T18:23:32.385Z,4.70
2018-12-24T18:27:39.373Z,5.07
2018-12-24T18:40:45.032Z,4.17
2018-12-24T18:44:52.068Z,4.87
2018-12-24T18:53:31.203Z,4.67
2018-12-24T18:57:50.972Z,6.53
2018-12-24T19:01:50.961Z,5.17
2018-12-24T19:05:58.028Z,5.43
2018-12-24T19:14:44.379Z,5.43
2018-12-24T19:18:51.452Z,6.10
2018-12-24T19:22:59.297Z,6.40
2018-12-24T19:27:06.261Z,6.70
2018-12-24T19:31:13.380Z,6.37
2018-12-24T19:35:20.665Z,6.00
2018-12-24T19:39:27.886Z,6.37
2018-12-24T19:43:36.521Z,6.10
2018-12-24T19:47:49.831Z,6.47
2018-12-24T19:52:03.271Z,6.87
2018-12-24T19:56:11.386Z,7.07
2018-12-24T20:00:20.739Z,7.43
2018-12-24T20:04:27.811Z,6.33
2018-12-24T20:13:08.059Z,6.90
2018-12-24T20:17:17.332Z,6.83
2018-12-24T20:25:51.887Z,6.53
2018-12-24T20:34:51.579Z,6.33
2018-12-24T20:39:18.052Z,16.73
2018-12-24T20:43:25.211Z,6.53
2018-12-24T20:47:32.373Z,6.50
2018-12-24T20:51:41.869Z,6.60
2018-12-24T21:00:10.332Z,6.53
2018-12-24T21:04:17.507Z,6.70
2018-12-24T21:08:24.603Z,5.73
2018-12-24T21:12:32.248Z,4.90
2018-12-24T21:16:58.476Z,5.87
2018-12-24T21:21:05.862Z,5.73
2018-12-24T21:25:13.145Z,6.40
2018-12-24T21:29:20.472Z,7.10
2018-12-24T21:37:48.592Z,6.57
2018-12-24T21:41:55.863Z,6.90
2018-12-24T21:46:03.290Z,6.60
2018-12-24T21:59:02.376Z,7.07
2018-12-24T22:03:42.537Z,6.63
2018-12-24T22:07:57.760Z,6.10
2018-12-24T22:12:05.032Z,6.60
2018-12-24T22:16:12.095Z,6.60
2018-12-24T22:24:48.989Z,6.37
2018-12-24T22:29:15.110Z,6.13
2018-12-24T22:33:26.992Z,6.17
2018-12-24T22:37:55.109Z,6.20
2018-12-24T22:42:04.570Z,6.13
2018-12-24T22:46:12.266Z,6.17
2018-12-24T22:50:21.440Z,6.63
2018-12-24T22:58:48.284Z,5.97
2018-12-24T23:02:55.730Z,6.37
2018-12-24T23:07:03.843Z,6.60
2018-12-24T23:15:51.075Z,5.70
2018-12-24T23:19:58.179Z,5.00
2018-12-24T23:24:05.959Z,5.43
2018-12-24T23:28:13.065Z,5.43
2018-12-24T23:32:20.307Z,5.17
2018-12-24T23:36:27.610Z,5.80
2018-12-24T23:40:55.579Z,5.70
2018-12-24T23:45:03.751Z,5.37
2018-12-24T23:53:42.198Z,5.23
2018-12-24T23:57:49.761Z,5.07
